createdAt,value
2022-11-05T00:01:01.627Z,28.3
2022-11-05T00:06:01.664Z,17.1
2022-11-05T00:11:01.659Z,18.4
2022-11-05T00:16:01.950Z,18.7
2022-11-05T00:21:01.629Z,18.7
2022-11-05T00:26:01.624Z,15.5
2022-11-05T00:31:01.668Z,19.3
2022-11-05T00:36:01.674Z,21.2
2022-11-05T00:41:01.637Z,22.1
2022-11-05T00:46:01.643Z,22.7
2022-11-05T00:51:01.674Z,22.7
2022-11-05T00:56:01.639Z,16.6
2022-11-05T01:01:01.641Z,20.2
2022-11-05T01:06:01.641Z,19.4
2022-11-05T01:11:01.672Z,17.8
2022-11-05T01:16:01.639Z,25.4
2022-11-05T01:21:01.685Z,25.4
2022-11-05T01:26:01.646Z,17.5
2022-11-05T01:31:01.688Z,17.7
2022-11-05T01:36:01.661Z,17.8
2022-11-05T01:41:01.659Z,19.5
2022-11-05T01:46:01.661Z,20.9
2022-11-05T01:51:01.659Z,20.9
2022-11-05T01:56:01.697Z,15.4
2022-11-05T02:01:01.664Z,17.0
2022-11-05T02:06:01.660Z,21.4
2022-11-05T02:11:01.662Z,20.2
2022-11-05T02:16:01.698Z,18.8
2022-11-05T02:21:01.702Z,18.8
2022-11-05T02:26:01.669Z,20.0
2022-11-05T02:31:01.702Z,14.7
2022-11-05T02:36:01.705Z,16.2
2022-11-05T02:41:01.665Z,16.4
2022-11-05T02:46:01.708Z,16.9
2022-11-05T02:51:01.676Z,16.9
2022-11-05T02:56:02.013Z,15.8
2022-11-05T03:01:01.694Z,17.9
2022-11-05T03:06:01.698Z,20.3
2022-11-05T03:11:01.705Z,15.2
2022-11-05T03:16:01.708Z,13.9
2022-11-05T03:21:01.701Z,13.9
2022-11-05T03:26:01.705Z,15.3
2022-11-05T03:31:01.735Z,13.0
2022-11-05T03:36:01.698Z,14.9
2022-11-05T03:41:01.707Z,12.6
2022-11-05T03:46:01.736Z,13.7
2022-11-05T03:51:01.711Z,13.7
2022-11-05T03:56:01.708Z,13.3
2022-11-05T04:01:01.706Z,15.8
2022-11-05T04:06:01.704Z,16.0
2022-11-05T04:11:01.747Z,16.7
2022-11-05T04:16:01.761Z,22.4
2022-11-05T04:21:01.706Z,22.4
2022-11-05T04:26:01.742Z,22.7
2022-11-05T04:31:01.673Z,16.3
2022-11-05T04:36:01.741Z,17.3
2022-11-05T04:41:01.749Z,19.2
2022-11-05T04:46:01.716Z,24.9
2022-11-05T04:51:01.754Z,24.9
2022-11-05T04:56:01.749Z,17.7
2022-11-05T05:01:01.756Z,21.9
2022-11-05T05:06:04.015Z,20.2
2022-11-05T05:11:01.718Z,20.8
2022-11-05T05:16:01.756Z,19.6
2022-11-05T05:21:01.755Z,19.6
2022-11-05T05:26:01.765Z,21.4
2022-11-05T05:31:01.723Z,16.9
2022-11-05T05:36:04.594Z,15.9
2022-11-05T05:41:01.764Z,13.6
2022-11-05T05:46:01.758Z,16.2
2022-11-05T05:51:01.728Z,16.2
2022-11-05T05:56:01.777Z,14.9
2022-11-05T06:01:01.777Z,12.5
2022-11-05T06:06:01.773Z,18.1
2022-11-05T06:11:01.911Z,10.8
2022-11-05T06:16:01.785Z,14.6
2022-11-05T06:21:01.751Z,14.6
2022-11-05T06:26:01.789Z,9.9
2022-11-05T06:31:01.793Z,16.2
2022-11-05T06:36:01.815Z,12.6
2022-11-05T06:41:07.267Z,17.9
2022-11-05T06:46:01.773Z,14.6
2022-11-05T06:51:01.944Z,14.6
2022-11-05T06:56:01.811Z,14.3
2022-11-05T07:01:01.863Z,12.4
2022-11-05T07:06:01.779Z,14.8
2022-11-05T07:11:01.832Z,13.8
2022-11-05T07:16:01.791Z,14.1
2022-11-05T07:21:01.772Z,14.1
2022-11-05T07:26:01.776Z,13.2
2022-11-05T07:31:01.820Z,17.2
2022-11-05T07:36:01.791Z,19.5
2022-11-05T07:41:01.786Z,13.6
2022-11-05T07:46:01.780Z,15.0
2022-11-05T07:51:01.785Z,15.0
2022-11-05T07:56:01.821Z,21.3
2022-11-05T08:01:01.977Z,16.7
2022-11-05T08:06:01.804Z,15.2
2022-11-05T08:11:01.842Z,11.6
2022-11-05T08:16:01.790Z,10.6
2022-11-05T08:21:01.832Z,10.6
2022-11-05T08:26:01.828Z,13.7
2022-11-05T08:31:01.829Z,14.4
2022-11-05T08:36:02.127Z,13.1
2022-11-05T08:41:01.829Z,10.7
2022-11-05T08:46:01.811Z,12.3
2022-11-05T08:51:02.015Z,12.3
2022-11-05T08:56:01.839Z,12.2
2022-11-05T09:01:04.680Z,12.1
2022-11-05T09:06:01.769Z,12.6
2022-11-05T09:11:01.783Z,16.5
2022-11-05T09:16:01.784Z,14.4
2022-11-05T09:21:01.774Z,14.4
2022-11-05T09:26:01.769Z,13.8
2022-11-05T09:31:01.772Z,13.4
2022-11-05T09:36:01.784Z,9.2
2022-11-05T09:41:01.792Z,11.3
2022-11-05T09:46:01.793Z,15.7
2022-11-05T09:51:01.789Z,15.7
2022-11-05T09:56:01.787Z,12.0
2022-11-05T10:01:01.862Z,8.8
2022-11-05T10:06:01.792Z,12.1
2022-11-05T10:11:01.796Z,12.1
2022-11-05T10:16:01.793Z,14.3
2022-11-05T10:21:01.820Z,14.3
2022-11-05T10:26:01.816Z,17.3
2022-11-05T10:31:01.856Z,13.8
2022-11-05T10:36:01.808Z,17.2
2022-11-05T10:41:01.807Z,14.3
2022-11-05T10:46:01.836Z,18.3
2022-11-05T10:51:01.823Z,18.3
2022-11-05T10:56:01.787Z,13.7
2022-11-05T11:01:02.018Z,13.5
2022-11-05T11:06:01.833Z,10.6
2022-11-05T11:11:01.829Z,12.5
2022-11-05T11:16:01.837Z,12.5
2022-11-05T11:21:01.833Z,10.2
2022-11-05T11:26:01.886Z,9.2
2022-11-05T11:31:01.842Z,9.5
2022-11-05T11:36:01.849Z,7.8
2022-11-05T11:41:01.841Z,10.0
2022-11-05T11:46:05.547Z,10.0
2022-11-05T11:51:01.838Z,7.5
2022-11-05T11:56:01.879Z,8.9
2022-11-05T12:01:01.865Z,9.1
2022-11-05T12:06:01.855Z,7.0
2022-11-05T12:11:01.843Z,7.2
2022-11-05T12:16:01.848Z,7.2
2022-11-05T12:21:01.845Z,10.9
2022-11-05T12:26:01.868Z,8.6
2022-11-05T12:31:01.854Z,7.8
2022-11-05T12:36:01.853Z,6.4
2022-11-05T12:41:01.837Z,7.6
2022-11-05T12:46:01.921Z,7.6
2022-11-05T12:51:01.853Z,4.7
2022-11-05T12:56:01.878Z,8.2
2022-11-05T13:01:01.914Z,9.8
2022-11-05T13:06:05.813Z,6.8
2022-11-05T13:11:01.876Z,3.6
2022-11-05T13:16:01.860Z,3.6
2022-11-05T13:21:01.858Z,7.2
2022-11-05T13:26:01.872Z,5.1
2022-11-05T13:31:01.857Z,11.0
2022-11-05T13:36:01.872Z,11.7
2022-11-05T13:41:01.874Z,12.0
2022-11-05T13:46:05.810Z,12.0
2022-11-05T13:51:01.864Z,14.0
2022-11-05T13:56:01.876Z,10.1
2022-11-05T14:01:01.919Z,10.9
2022-11-05T14:06:01.876Z,8.5
2022-11-05T14:11:01.874Z,8.7
2022-11-05T14:16:01.872Z,8.7
2022-11-05T14:21:01.862Z,8.5
2022-11-05T14:26:01.862Z,11.7
2022-11-05T14:31:01.880Z,8.5
2022-11-05T14:36:01.868Z,8.5
2022-11-05T14:41:01.874Z,11.4
2022-11-05T14:46:01.871Z,11.4
2022-11-05T14:51:01.889Z,9.8
2022-11-05T14:56:01.869Z,8.0
2022-11-05T15:01:01.978Z,6.7
2022-11-05T15:06:01.890Z,7.5
2022-11-05T15:11:01.892Z,7.6
2022-11-05T15:16:01.904Z,7.6
2022-11-05T15:21:01.882Z,6.3
2022-11-05T15:26:01.897Z,11.3
2022-11-05T15:31:01.910Z,10.4
2022-11-05T15:36:01.896Z,5.9
2022-11-05T15:41:01.907Z,11.3
2022-11-05T15:46:01.908Z,11.3
2022-11-05T15:51:01.921Z,6.0
2022-11-05T15:56:01.899Z,5.5
2022-11-05T16:01:01.988Z,8.8
2022-11-05T16:06:01.897Z,15.4
2022-11-05T16:11:01.923Z,12.7
2022-11-05T16:16:01.905Z,12.7
2022-11-05T16:21:01.928Z,16.6
2022-11-05T16:26:01.920Z,23.5
2022-11-05T16:31:01.966Z,28.9
2022-11-05T16:36:01.923Z,64.3
2022-11-05T16:41:01.941Z,44.8
2022-11-05T16:46:01.931Z,44.8
2022-11-05T16:51:01.929Z,39.3
2022-11-05T16:56:01.925Z,58.4
2022-11-05T17:01:01.947Z,52.1
2022-11-05T17:06:01.931Z,36.8
2022-11-05T17:11:01.913Z,37.9
2022-11-05T17:16:01.927Z,37.9
2022-11-05T17:21:01.983Z,32.0
2022-11-05T17:26:01.951Z,12.5
2022-11-05T17:31:01.968Z,11.4
2022-11-05T17:36:01.921Z,8.8
2022-11-05T17:41:01.936Z,7.1
2022-11-05T17:46:04.690Z,7.1
2022-11-05T17:51:01.946Z,7.9
2022-11-05T17:56:01.982Z,9.8
2022-11-05T18:01:01.968Z,11.6
2022-11-05T18:06:01.927Z,10.5
2022-11-05T18:11:01.964Z,12.1
2022-11-05T18:16:01.931Z,12.1
2022-11-05T18:21:01.928Z,18.9
2022-11-05T18:26:01.944Z,18.7
2022-11-05T18:31:01.963Z,20.0
2022-11-05T18:36:01.986Z,17.5
2022-11-05T18:41:01.945Z,12.1
2022-11-05T18:46:01.961Z,12.1
2022-11-05T18:51:02.272Z,15.2
2022-11-05T18:56:01.925Z,13.1
2022-11-05T19:01:06.440Z,23.1
2022-11-05T19:06:01.947Z,25.8
2022-11-05T19:11:01.934Z,24.9
2022-11-05T19:16:01.944Z,24.9
2022-11-05T19:21:01.942Z,25.7
2022-11-05T19:26:01.940Z,32.0
2022-11-05T19:31:01.979Z,36.3
2022-11-05T19:36:01.931Z,41.8
2022-11-05T19:41:01.943Z,39.8
2022-11-05T19:46:01.948Z,39.8
2022-11-05T19:51:01.950Z,40.7
2022-11-05T19:56:01.933Z,45.5
2022-11-05T20:01:02.015Z,39.5
2022-11-05T20:06:01.940Z,35.1
2022-11-05T20:11:01.934Z,58.3
2022-11-05T20:16:01.948Z,58.3
2022-11-05T20:21:01.942Z,61.8
2022-11-05T20:26:01.970Z,52.7
2022-11-05T20:31:01.963Z,46.8
2022-11-05T20:36:01.964Z,56.1
2022-11-05T20:41:01.944Z,68.3
2022-11-05T20:46:01.948Z,68.3
2022-11-05T20:51:01.946Z,61.9
2022-11-05T20:56:07.447Z,56.0
2022-11-05T21:01:02.041Z,60.2
2022-11-05T21:06:02.004Z,63.0
2022-11-05T21:11:02.016Z,63.1
2022-11-05T21:16:02.000Z,63.1
2022-11-05T21:21:02.003Z,65.2
2022-11-05T21:26:02.037Z,79.9
2022-11-05T21:31:02.007Z,87.5
2022-11-05T21:36:02.014Z,104.1
2022-11-05T21:41:02.012Z,80.3
2022-11-05T21:46:02.025Z,80.3
2022-11-05T21:51:02.015Z,93.5
2022-11-05T21:56:02.013Z,79.0
2022-11-05T22:01:02.014Z,73.1
2022-11-05T22:06:02.045Z,91.5
2022-11-05T22:11:02.051Z,78.0
2022-11-05T22:16:02.011Z,78.0
2022-11-05T22:21:02.035Z,80.6
2022-11-05T22:26:01.996Z,95.1
2022-11-05T22:31:02.052Z,108.2
2022-11-05T22:36:02.065Z,83.9
2022-11-05T22:41:02.048Z,94.9
2022-11-05T22:46:02.044Z,94.9
2022-11-05T22:51:01.955Z,86.7
2022-11-05T22:56:02.074Z,99.7
2022-11-05T23:01:01.941Z,94.3
2022-11-05T23:06:02.048Z,82.4
2022-11-05T23:11:01.960Z,90.8
2022-11-05T23:16:01.950Z,90.8
2022-11-05T23:21:01.959Z,94.3
2022-11-05T23:26:01.966Z,94.4
2022-11-05T23:31:01.950Z,85.7
2022-11-05T23:36:01.944Z,92.4
2022-11-05T23:41:02.086Z,70.9
2022-11-05T23:46:01.966Z,70.9
2022-11-05T23:51:01.968Z,70.7
2022-11-05T23:56:01.940Z,64.2
